Брянск

Карта отелей и гостиниц, располагающихся рядом с аэропортом Брянск :

Брянск Брянская область 53° 12' 51.9012" N, 34° 10' 33.4812" E
Код аэродрома ИКАО: 
UUBP
Код аэродрома RU: 
УУБП
Координаты: 
N53.21442° E034.17597°
Превышение над уровнем моря : 
203
Основная полоса: 
16L/34R
Курс магнитный: 
162,5/342,5
Длина основной ВПП: 
2400
Ширина основной ВПП: 
42
Покрытие основной ВПП: 
Твёрдое
Тип: 
Аэродром
Освещение ВПП: 
Постоянное
Класс аэродрома: 
Международный
Статус: 
Действующий
Принадлежность: 
ГА
Сайт: 
aero32.ru
E-mail аэродрома: 
MAB@aero32.ru
Страна: 
Россия
Регион: 
Брянская область
Дополнительная информация: 
Оператор: ОАО «Международный аэропорт «Брянск». Нкр.=(500)м. ДПРМ: 325-"OD/NU", БПРМ: 668-"O/N".
Погода: 

Авиационная погода в Брянске

Регион: 
Погода METAR: 
UUBP 110330Z 32001MPS CAVOK 16/15 Q1015 R34/CLRD70 NOSIG RMK QFE743/0991
Время наблюдения: 
2020-08-11T03:30:00Z
Температура C: 
16.0
Точка росы: 
15.0
Направление ветра: 
320
Скорость ветра: 
2
Метеорологическая видимость: 
6.21
Условия полета: 
VFR
Аэропорт подробнее: 

Найти трансфер

С помощью этой формы Вы можете найти трансфер из аэропорта Брянск в город, аэропорт или вокзал:

Карта места

Javascript is required to view this map.

Погода в аэропортах:

Авиационная погода в Вадсё

Регион: 
Погода METAR: 
ENVD 110350Z 29005KT 9999 VCSH FEW015 SCT026 BKN035 09/08 Q1026
Время наблюдения: 
2020-08-11T03:50:00Z
Температура C: 
9.0
Точка росы: 
8.0
Направление ветра: 
290
Скорость ветра: 
5
Метеорологическая видимость: 
6.21
Явления погоды: 
VCSH
Условия полета: 
VFR

Авиационная погода в Витебске

Регион: 
Погода METAR: 
UMII 101505Z 05005G08MPS 4600 -TSRA SCT006 BKN030CB 23/16 Q1015 R23/D TEMPO 2000 SHRA BKN005 RMK QBB200
Время наблюдения: 
2020-08-10T15:05:00Z
Температура C: 
23.0
Точка росы: 
16.0
Направление ветра: 
50
Скорость ветра: 
10
Метеорологическая видимость: 
2.86
Явления погоды: 
-TSRA
Условия полета: 
IFR

Авиационная погода в Челябинске

Регион: 
Погода METAR: 
USCC 110330Z 33006MPS 1900 DZ BR OVC004 14/14 Q0996 R27/290050 NOSIG RMK QFE727
Время наблюдения: 
2020-08-11T03:30:00Z
Температура C: 
14.0
Точка росы: 
14.0
Направление ветра: 
330
Скорость ветра: 
12
Метеорологическая видимость: 
1.18
Явления погоды: 
DZ BR
Условия полета: 
LIFR
Аэропорт подробнее: 

Авиационная погода в Грозном

Регион: 
Погода METAR: 
URMG 110330Z 26003MPS 210V010 9999 -SHRA BKN046CB OVC/// 20/18 Q1011 R08/090070 NOSIG RMK QFE744/0992
Время наблюдения: 
2020-08-11T03:30:00Z
Температура C: 
20.0
Точка росы: 
18.0
Направление ветра: 
260
Скорость ветра: 
6
Метеорологическая видимость: 
6.21
Явления погоды: 
-SHRA
Условия полета: 
VFR
Аэропорт подробнее: